Aérodrome :
LOGIN :

S'inscrire | Disclaimer

   EN    FR    IT 

 










Légende :    VFR   VFR Marginal   IFR   IFR Intensif   IFR Très Intensif
Visi : 
Plafond : 
>= 8 km
>= 3000ft
5 à 8 km
1000 à 3000 ft
1500m à 5 km
500 à 1000 ft
800 à 1500m
200 à 500 ft
< 800m
< 200 ft
Symboles :   Orages  Brouillard  Fortes neiges  Fortes précipitations  Vent > 20 kt
SIGMETs :   Divers  Orages  Givrage  Turbulence  Onde Orograph.  Cendres Volcan.







- Altitude de l'aérodrome : 300 ft
- Code IATA : MLA


LMML - Malta Luqa

DERNIER METAR :
  • 240445Z 36005KT 7000 FEW011 12/11 Q1021 BECMG 9999

METARs EXPIRÉS :
  • 240415Z 34005KT 9000 FEW015 11/11 Q1021 NOSIG
  • 240345Z 01007KT 9000 FEW015 12/11 Q1021 NOSIG
  • 240315Z 02007KT 9999 FEW012 SCT025 12/11 Q1021 NOSIG
  • 240245Z 02005KT 9999 FEW012 SCT025 12/11 Q1020 NOSIG
  • 240215Z 02006KT 9999 FEW012 SCT020 13/11 Q1020 NOSIG
  • 240203Z 03006KT 9999 FEW013 13/11 Q1020 NOSIG

TAF TAF LMML
Valide du 24 à 00h jusqu'au 25 à 00h UTC


232300Z 2400/2424 04010KT CAVOK
TEMPO 2400/2407 BKN014
BECMG 2408/2411 29006KT
Pas de NOTAMs connus pour ce terrain.
1 SIGMET publié pour la FIR Malta (LMMM) :
 
Turbulence forte
LMMM SIGMET 1 VALID 240325/240725 LMML
LMMM MALTA FIR SEV TURB FCST W OF E017 FL290/350 MOV W NC=



MET'MAP, la Météo Aéronautique d'un coup d'oeil ! - Copyright ORBIFLY Décembre 2007 - Disclaimer

ORBIFLY MET'MAP TEAM :

Programmation & Développement : Alexandra Zaïnal
Conception & Développement : Baudouin d'Aumeries
Co-Programmation & Développement : Marc-Olivier Méhu
Soutien technique & logistique : Manuel Goepfert

Contact : metmap@orbifly.com




SOURCES & CREDITS :

   NOAA